createdAt,value
2023-05-23T00:03:13.856Z,64.40
2023-05-23T00:08:16.636Z,64.40
2023-05-23T00:13:19.067Z,64.20
2023-05-23T00:18:21.399Z,64.20
2023-05-23T00:23:25.397Z,64.20
2023-05-23T00:28:28.113Z,64.20
2023-05-23T00:33:33.272Z,64.30
2023-05-23T00:38:35.560Z,63.90
2023-05-23T00:43:38.004Z,64.20
2023-05-23T00:48:40.461Z,64.20
2023-05-23T00:53:43.751Z,64.20
2023-05-23T00:58:46.368Z,64.10
2023-05-23T01:03:48.971Z,64.20
2023-05-23T01:08:51.815Z,64.30
2023-05-23T01:14:05.102Z,64.20
2023-05-23T01:29:47.194Z,64.30
2023-05-23T01:34:52.997Z,64.20
2023-05-23T01:39:55.449Z,64.20
2023-05-23T01:44:59.624Z,64.40
2023-05-23T01:50:02.849Z,64.30
2023-05-23T01:55:09.837Z,64.30
2023-05-23T02:00:14.960Z,64.90
2023-05-23T02:05:27.347Z,64.30
2023-05-23T02:10:29.636Z,64.60
2023-05-23T02:15:31.938Z,64.30
2023-05-23T02:20:34.336Z,64.30
2023-05-23T02:25:36.615Z,64.30
2023-05-23T02:30:42.192Z,64.30
2023-05-23T02:35:44.525Z,64.50
2023-05-23T02:40:46.937Z,64.50
2023-05-23T02:45:49.560Z,64.80
2023-05-23T02:50:52.357Z,64.60
2023-05-23T02:55:55.223Z,64.80
2023-05-23T03:00:57.671Z,64.90
2023-05-23T03:06:00.604Z,64.80
2023-05-23T03:11:02.916Z,64.80
2023-05-23T03:16:05.708Z,65.00
2023-05-23T03:21:09.654Z,64.80
2023-05-23T03:26:12.089Z,65.00
2023-05-23T03:31:14.322Z,65.00
2023-05-23T03:36:17.004Z,65.10
2023-05-23T03:41:19.822Z,65.00
2023-05-23T03:46:22.364Z,65.00
2023-05-23T03:51:24.867Z,65.00
2023-05-23T03:56:27.247Z,65.10
2023-05-23T04:01:29.779Z,65.10
2023-05-23T04:06:33.702Z,65.20
2023-05-23T04:11:36.126Z,65.40
2023-05-23T04:16:41.907Z,65.40
2023-05-23T04:21:44.782Z,65.50
2023-05-23T04:26:50.580Z,65.20
2023-05-23T04:31:53.140Z,65.50
2023-05-23T04:36:55.958Z,65.50
2023-05-23T04:41:59.923Z,65.30
2023-05-23T04:47:22.521Z,65.40
2023-05-23T04:52:34.311Z,65.20
2023-05-23T04:57:37.359Z,65.50
2023-05-23T05:02:42.063Z,65.20
2023-05-23T05:07:46.055Z,65.50
2023-05-23T05:12:49.866Z,65.60
2023-05-23T05:17:53.813Z,65.50
2023-05-23T05:22:58.481Z,65.80
2023-05-23T05:28:06.278Z,65.20
2023-05-23T05:33:15.646Z,65.30
2023-05-23T05:38:18.669Z,65.80
2023-05-23T05:43:22.659Z,65.30
2023-05-23T05:48:25.245Z,65.40
2023-05-23T05:53:30.772Z,65.30
2023-05-23T05:58:33.234Z,65.60
2023-05-23T06:03:39.047Z,65.80
2023-05-23T06:08:42.531Z,64.80
2023-05-23T06:13:48.155Z,65.10
2023-05-23T06:18:50.577Z,64.60
2023-05-23T06:23:53.900Z,65.10
2023-05-23T06:28:56.368Z,65.30
2023-05-23T06:33:58.821Z,65.20
2023-05-23T06:39:01.133Z,65.20
2023-05-23T06:44:03.520Z,64.90
2023-05-23T06:49:14.769Z,64.90
2023-05-23T06:54:20.163Z,64.40
2023-05-23T06:59:22.547Z,64.40
2023-05-23T07:04:25.099Z,64.90
2023-05-23T07:09:28.394Z,64.90
2023-05-23T07:29:47.324Z,64.40
2023-05-23T07:34:50.576Z,65.70
2023-05-23T07:39:54.380Z,64.70
2023-05-23T07:44:56.824Z,65.20
2023-05-23T07:50:02.353Z,64.90
2023-05-23T07:55:06.463Z,64.50
2023-05-23T08:00:10.262Z,65.60
2023-05-23T08:05:26.745Z,66.60
2023-05-23T08:10:31.930Z,65.00
2023-05-23T08:15:42.428Z,66.60
2023-05-23T08:20:52.673Z,65.40
2023-05-23T08:25:57.324Z,65.70
2023-05-23T08:31:01.157Z,66.80
2023-05-23T08:36:04.840Z,66.70
2023-05-23T08:41:16.389Z,66.40
2023-05-23T08:46:18.959Z,67.10
2023-05-23T08:51:25.268Z,66.50
2023-05-23T08:56:28.499Z,65.50
2023-05-23T09:01:34.136Z,65.20
2023-05-23T09:06:38.708Z,65.50
2023-05-23T09:11:46.039Z,65.80
2023-05-23T09:16:49.885Z,66.70
2023-05-23T09:21:56.782Z,67.60
2023-05-23T09:27:03.497Z,67.40
2023-05-23T09:32:14.243Z,68.80
2023-05-23T09:37:19.481Z,68.50
2023-05-23T09:42:23.190Z,69.50
2023-05-23T09:47:26.464Z,68.30
2023-05-23T09:52:39.086Z,69.50
2023-05-23T09:57:43.692Z,69.50
2023-05-23T10:13:27.493Z,71.20
2023-05-23T10:18:34.405Z,73.20
2023-05-23T10:23:38.372Z,72.80
2023-05-23T10:28:42.020Z,73.00
2023-05-23T10:33:53.222Z,73.20
2023-05-23T10:59:59.415Z,72.20
2023-05-23T11:05:23.027Z,74.00
2023-05-23T11:10:25.572Z,73.90
2023-05-23T11:15:28.042Z,74.30
2023-05-23T11:20:31.313Z,74.10
2023-05-23T11:25:53.589Z,74.60
2023-05-23T11:30:57.657Z,74.70
2023-05-23T11:36:00.673Z,74.10
2023-05-23T11:41:03.142Z,74.70
2023-05-23T11:46:09.356Z,75.20
2023-05-23T11:51:11.974Z,75.50
2023-05-23T11:56:16.467Z,76.30
2023-05-23T12:01:19.020Z,76.70
2023-05-23T12:06:24.810Z,76.20
2023-05-23T12:11:27.350Z,74.50
2023-05-23T12:16:30.022Z,74.80
2023-05-23T12:21:49.510Z,74.80
2023-05-23T12:32:04.493Z,76.10
2023-05-23T12:37:19.135Z,75.80
2023-05-23T12:42:22.680Z,75.50
2023-05-23T12:47:25.053Z,75.50
2023-05-23T12:52:27.554Z,76.30
2023-05-23T12:57:29.878Z,75.10
2023-05-23T13:02:32.215Z,74.90
2023-05-23T13:07:34.607Z,74.00
2023-05-23T13:12:37.033Z,74.00
2023-05-23T13:17:39.710Z,73.70
2023-05-23T13:22:42.113Z,74.60
2023-05-23T13:27:44.773Z,74.40
2023-05-23T13:32:51.696Z,74.70
2023-05-23T13:38:16.484Z,74.00
2023-05-23T13:43:18.980Z,73.90
2023-05-23T13:48:21.397Z,73.90
2023-05-23T13:53:23.859Z,74.70
2023-05-23T13:58:26.434Z,74.00
2023-05-23T14:03:29.152Z,74.40
2023-05-23T14:08:31.844Z,74.60
2023-05-23T14:13:34.381Z,75.20
2023-05-23T14:18:39.245Z,75.20
2023-05-23T14:23:41.931Z,75.80
2023-05-23T14:28:44.329Z,76.50
2023-05-23T14:33:46.677Z,76.80
2023-05-23T14:38:51.230Z,76.80
2023-05-23T14:43:53.542Z,75.60
2023-05-23T14:48:55.842Z,76.30
2023-05-23T14:53:58.239Z,76.30
2023-05-23T14:59:01.483Z,77.00
2023-05-23T15:04:05.778Z,76.70
2023-05-23T15:09:09.837Z,77.10
2023-05-23T15:14:12.326Z,76.00
2023-05-23T15:19:14.686Z,76.70
2023-05-23T15:24:17.085Z,77.20
2023-05-23T15:29:19.461Z,77.00
2023-05-23T15:34:21.870Z,75.80
2023-05-23T15:39:26.032Z,76.40
2023-05-23T15:44:28.357Z,75.40
2023-05-23T15:49:30.795Z,75.30
2023-05-23T15:54:33.095Z,75.50
2023-05-23T15:59:37.525Z,76.40
2023-05-23T16:17:24.623Z,74.80
2023-05-23T16:22:27.497Z,76.50
2023-05-23T16:27:29.883Z,75.30
2023-05-23T16:32:32.222Z,75.40
2023-05-23T16:37:34.776Z,75.50
2023-05-23T16:42:37.911Z,75.80
2023-05-23T16:47:40.395Z,75.40
2023-05-23T16:52:42.739Z,75.00
2023-05-23T16:57:44.995Z,75.00
2023-05-23T18:35:51.928Z,74.00
2023-05-23T18:40:54.972Z,73.70
2023-05-23T18:45:57.203Z,73.60
2023-05-23T18:50:59.616Z,73.50
2023-05-23T18:56:01.985Z,73.50
2023-05-23T19:01:04.310Z,73.40
2023-05-23T19:06:07.073Z,73.30
2023-05-23T19:11:10.823Z,73.20
2023-05-23T19:16:13.755Z,73.20
2023-05-23T19:21:16.112Z,73.20
2023-05-23T19:26:20.413Z,73.00
2023-05-23T19:31:22.913Z,73.00
2023-05-23T19:36:25.267Z,73.10
2023-05-23T19:46:47.382Z,73.30
2023-05-23T19:51:49.650Z,73.50
2023-05-23T19:56:51.932Z,73.20
2023-05-23T20:01:54.175Z,73.30
2023-05-23T20:06:56.761Z,73.30
2023-05-23T20:11:59.065Z,73.20
2023-05-23T20:17:01.492Z,73.10
2023-05-23T20:22:03.856Z,72.90
2023-05-23T20:27:07.663Z,72.60
2023-05-23T20:32:09.954Z,72.80
2023-05-23T20:37:13.711Z,72.70
2023-05-23T20:42:16.662Z,72.50
2023-05-23T20:47:19.373Z,72.40
2023-05-23T20:52:23.058Z,72.30
2023-05-23T20:57:25.365Z,72.20
2023-05-23T21:02:27.696Z,72.00
2023-05-23T21:07:30.105Z,72.20
2023-05-23T21:12:32.425Z,72.20
2023-05-23T21:17:34.738Z,72.20
2023-05-23T21:22:37.468Z,72.30
2023-05-23T21:27:40.233Z,72.20
2023-05-23T21:32:43.693Z,72.30
2023-05-23T21:37:46.181Z,72.50
2023-05-23T21:42:48.774Z,72.40
2023-05-23T21:47:51.251Z,72.30
2023-05-23T21:52:53.591Z,72.10
2023-05-23T21:57:55.868Z,72.10
2023-05-23T22:02:58.242Z,72.10
2023-05-23T22:08:00.561Z,72.10
2023-05-23T22:13:04.108Z,72.00
2023-05-23T22:18:07.555Z,71.90
2023-05-23T22:23:10.113Z,71.90
2023-05-23T22:28:12.536Z,71.80
2023-05-23T22:33:14.889Z,71.80
2023-05-23T22:38:17.130Z,71.80
2023-05-23T22:43:21.893Z,71.90
2023-05-23T22:48:26.183Z,71.70
2023-05-23T22:53:29.034Z,71.60
2023-05-23T22:58:31.613Z,71.50
2023-05-23T23:08:47.808Z,71.20
2023-05-23T23:13:50.124Z,71.20
2023-05-23T23:18:52.705Z,71.10
2023-05-23T23:23:54.989Z,71.10
2023-05-23T23:28:57.523Z,71.00
2023-05-23T23:33:59.872Z,70.80
2023-05-23T23:39:02.196Z,70.80
2023-05-23T23:44:04.457Z,70.90
2023-05-23T23:49:06.743Z,71.20
2023-05-23T23:54:09.046Z,71.20
2023-05-23T23:59:11.396Z,71.20
